Time;durP1;ratioP1;P1;durP2;ratioP2;P2;SDS_P1;SDS_P2;PMS_P1;PMS_P2;Temp;Humidity;BMP_temperature;BMP_pressure;BME280_temperature;BME280_humidity;BME280_pressure;Samples;Min_cycle;Max_cycle;Signal;HPM_P1;HPM_P2
2021/10/21 00:01:18;;;;;;;;;;;;;;;;;;5096183;28;20357;-83
2021/10/21 00:03:43;;;;;;;;;;;;;;;;;;5096147;28;19987;-82
2021/10/21 00:06:09;;;;;;;;;;;;;;;;;;5096087;28;19923;-82
2021/10/21 00:08:34;;;;;;;;;;;;;;;;;;5095770;28;19927;-82
2021/10/21 00:11:00;;;;;;;;;;;;;;;;;;5096052;28;19961;-82
2021/10/21 00:13:25;;;;;;;;;;;;;;;;;;5095993;28;20268;-82
2021/10/21 00:15:50;;;;;;;;;;;;;;;;;;5095970;28;19984;-82
2021/10/21 00:18:16;;;;;;;;;;;;;;;;;;5095875;28;19924;-82
2021/10/21 00:20:41;;;;;;;;;;;;;;;;;;5095862;28;19927;-82
2021/10/21 00:23:07;;;;;;;;;;;;;;;;;;5095908;28;19931;-82
2021/10/21 00:25:33;;;;;;;;;;;;;;;;;;5095800;28;19916;-83
2021/10/21 00:27:58;;;;;;;;;;;;;;;;;;5094393;28;19923;-82
2021/10/21 00:30:25;;;;;;;;;;;;;;;;;;5095659;28;19952;-82
2021/10/21 00:32:50;;;;;;;;;;;;;;;;;;5095597;28;19916;-83
2021/10/21 00:35:16;;;;;;;;;;;;;;;;;;5095808;28;19916;-83
2021/10/21 00:37:41;;;;;;;;;;;;;;;;;;5095507;28;20440;-82
2021/10/21 00:40:07;;;;;;;;;;;;;;;;;;5095760;28;19920;-82
2021/10/21 00:42:33;;;;;;;;;;;;;;;;;;5095875;28;20366;-82
2021/10/21 00:44:58;;;;;;;;;;;;;;;;;;5096024;28;19920;-82
2021/10/21 00:47:24;;;;;;;;;;;;;;;;;;5107077;28;19920;-84
2021/10/21 00:49:49;;;;;;;;;;;;;;;;;;5114682;28;19978;-83
2021/10/21 00:52:15;;;;;;;;;;;;;;;;;;5100054;28;19916;-82
2021/10/21 00:54:41;;;;;;;;;;;;;;;;;;5095774;28;19982;-82
2021/10/21 00:57:07;;;;;;;;;;;;;;;;;;5095212;28;20006;-81
2021/10/21 00:59:34;;;;;;;;;;;;;;;;;;5093903;28;20295;-82
2021/10/21 01:01:59;;;;;;;;;;;;;;;;;;5095025;28;19967;-82
2021/10/21 01:04:25;;;;;;;;;;;;;;;;;;5094964;28;19956;-82
2021/10/21 01:06:51;;;;;;;;;;;;;;;;;;5094972;28;20332;-81
2021/10/21 01:09:16;;;;;;;;;;;;;;;;;;5094766;28;19927;-82
2021/10/21 01:11:42;;;;;;;;;;;;;;;;;;5094788;28;19916;-82
2021/10/21 01:14:08;;;;;;;;;;;;;;;;;;5094821;28;19923;-82
2021/10/21 01:16:35;;;;;;;;;;;;;;;;;;5094799;28;19966;-81
2021/10/21 01:19:01;;;;;;;;;;;;;;;;;;5094049;28;19916;-83
2021/10/21 01:21:26;;;;;;;;;;;;;;;;;;5094599;28;20368;-82
2021/10/21 01:23:52;;;;;;;;;;;;;;;;;;5094679;28;19947;-82
2021/10/21 01:26:17;;;;;;;;;;;;;;;;;;5094537;28;20268;-82
2021/10/21 01:28:43;;;;;;;;;;;;;;;;;;5094430;28;19916;-82
2021/10/21 01:31:08;;;;;;;;;;;;;;;;;;5094398;28;19966;-82
2021/10/21 01:33:34;;;;;;;;;;;;;;;;;;5094416;28;19916;-83
2021/10/21 01:36:00;;;;;;;;;;;;;;;;;;5094413;28;20007;-82
2021/10/21 01:38:26;;;;;;;;;;;;;;;;;;5094394;28;19955;-82
2021/10/21 01:40:51;;;;;;;;;;;;;;;;;;5094135;28;19920;-82
2021/10/21 01:43:17;;;;;;;;;;;;;;;;;;5094554;28;19920;-82
2021/10/21 01:45:43;;;;;;;;;;;;;;;;;;5094301;28;20404;-83
2021/10/21 01:48:08;;;;;;;;;;;;;;;;;;5094150;28;19958;-81
2021/10/21 01:50:34;;;;;;;;;;;;;;;;;;5094112;28;19916;-82
2021/10/21 01:52:59;;;;;;;;;;;;;;;;;;5093998;28;19923;-82
2021/10/21 01:55:25;;;;;;;;;;;;;;;;;;5126875;27;19923;-82
2021/10/21 01:57:51;;;;;;;;;;;;;;;;;;5094045;28;19912;-81
2021/10/21 02:00:18;;;;;;;;;;;;;;;;;;5093795;28;19924;-82
2021/10/21 02:02:44;;;;;;;;;;;;;;;;;;5093909;28;19924;-82
2021/10/21 02:05:11;;;;;;;;;;;;;;;;;;5093913;28;19916;-82
2021/10/21 02:07:36;;;;;;;;;;;;;;;;;;5094047;28;20382;-82
2021/10/21 02:10:04;;;;;;;;;;;;;;;;;;5093743;28;19920;-82
2021/10/21 02:12:30;;;;;;;;;;;;;;;;;;5093806;28;19920;-82
2021/10/21 02:14:55;;;;;;;;;;;;;;;;;;5092413;28;19916;-81
2021/10/21 02:17:22;;;;;;;;;;;;;;;;;;5093751;28;19917;-82
2021/10/21 02:19:48;;;;;;;;;;;;;;;;;;5093600;28;19927;-82
2021/10/21 02:22:13;;;;;;;;;;;;;;;;;;5093632;28;19916;-81
2021/10/21 02:24:39;;;;;;;;;;;;;;;;;;5093551;28;19923;-82
2021/10/21 02:27:04;;;;;;;;;;;;;;;;;;5093529;28;19966;-82
2021/10/21 02:29:30;;;;;;;;;;;;;;;;;;5093563;28;19927;-82
2021/10/21 02:31:55;;;;;;;;;;;;;;;;;;5092643;28;20379;-82
2021/10/21 02:34:21;;;;;;;;;;;;;;;;;;5093494;28;20021;-82
2021/10/21 02:36:46;;;;;;;;;;;;;;;;;;5093455;28;20460;-82
2021/10/21 02:39:11;;;;;;;;;;;;;;;;;;5093378;28;20356;-82
2021/10/21 02:41:37;;;;;;;;;;;;;;;;;;5093210;28;19920;-82
2021/10/21 02:44:02;;;;;;;;;;;;;;;;;;5093306;28;19916;-82
2021/10/21 02:46:28;;;;;;;;;;;;;;;;;;5093423;28;20010;-82
2021/10/21 02:48:54;;;;;;;;;;;;;;;;;;5093160;28;19923;-81
2021/10/21 02:51:19;;;;;;;;;;;;;;;;;;5093251;28;19916;-82
2021/10/21 02:53:45;;;;;;;;;;;;;;;;;;5093195;28;19923;-81
2021/10/21 02:56:10;;;;;;;;;;;;;;;;;;5093217;28;19923;-81
2021/10/21 02:58:35;;;;;;;;;;;;;;;;;;5091949;28;19987;-81
2021/10/21 03:01:01;;;;;;;;;;;;;;;;;;5093103;28;19920;-82
2021/10/21 03:03:26;;;;;;;;;;;;;;;;;;5092778;28;19923;-82
2021/10/21 03:05:52;;;;;;;;;;;;;;;;;;5093185;28;19912;-82
2021/10/21 03:08:17;;;;;;;;;;;;;;;;;;5092970;28;19928;-81
2021/10/21 03:10:42;;;;;;;;;;;;;;;;;;5093145;28;20280;-81
2021/10/21 03:13:08;;;;;;;;;;;;;;;;;;5093493;28;19969;-81
2021/10/21 03:15:33;;;;;;;;;;;;;;;;;;5093424;28;20389;-81
2021/10/21 03:17:59;;;;;;;;;;;;;;;;;;5093528;28;20329;-83
2021/10/21 03:20:25;;;;;;;;;;;;;;;;;;5091724;28;19920;-82
2021/10/21 03:22:50;;;;;;;;;;;;;;;;;;5093120;28;19963;-82
2021/10/21 03:25:15;;;;;;;;;;;;;;;;;;5092956;28;20383;-82
2021/10/21 03:27:41;;;;;;;;;;;;;;;;;;5092957;28;19927;-83
2021/10/21 03:30:08;;;;;;;;;;;;;;;;;;5092881;28;19923;-83
2021/10/21 03:32:33;;;;;;;;;;;;;;;;;;5093068;28;19977;-82
2021/10/21 03:34:59;;;;;;;;;;;;;;;;;;5092994;28;20376;-83
2021/10/21 03:37:24;;;;;;;;;;;;;;;;;;5093733;28;19912;-85
2021/10/21 03:39:50;;;;;;;;;;;;;;;;;;5099197;28;19927;-81
2021/10/21 03:42:16;;;;;;;;;;;;;;;;;;5096344;28;19920;-83
2021/10/21 03:44:42;;;;;;;;;;;;;;;;;;5097927;28;20284;-82
2021/10/21 03:47:09;;;;;;;;;;;;;;;;;;5096967;28;19920;-81
2021/10/21 03:49:34;;;;;;;;;;;;;;;;;;5096963;28;19916;-82
2021/10/21 03:52:00;;;;;;;;;;;;;;;;;;5097000;28;19922;-81
2021/10/21 03:54:26;;;;;;;;;;;;;;;;;;5097122;28;20292;-82
2021/10/21 03:56:51;;;;;;;;;;;;;;;;;;5097224;28;19993;-79
2021/10/21 03:59:16;;;;;;;;;;;;;;;;;;5096985;28;19927;-80
2021/10/21 04:01:42;;;;;;;;;;;;;;;;;;5096845;28;19916;-81
2021/10/21 04:04:07;;;;;;;;;;;;;;;;;;5096337;28;20448;-81
2021/10/21 04:06:33;;;;;;;;;;;;;;;;;;5096324;28;19947;-80
2021/10/21 04:08:58;;;;;;;;;;;;;;;;;;5096099;28;19920;-81
2021/10/21 04:11:24;;;;;;;;;;;;;;;;;;5096149;28;19916;-83
2021/10/21 04:13:49;;;;;;;;;;;;;;;;;;5096057;28;20340;-81
2021/10/21 04:16:15;;;;;;;;;;;;;;;;;;5096969;28;19916;-80
2021/10/21 04:18:40;;;;;;;;;;;;;;;;;;5096518;28;20280;-79
2021/10/21 04:21:06;;;;;;;;;;;;;;;;;;5097223;28;19916;-80
2021/10/21 04:23:31;;;;;;;;;;;;;;;;;;5104393;28;20395;-80
2021/10/21 04:25:57;;;;;;;;;;;;;;;;;;5100253;28;19920;-80
2021/10/21 04:28:22;;;;;;;;;;;;;;;;;;5103276;28;19923;-80
2021/10/21 04:30:48;;;;;;;;;;;;;;;;;;5099554;28;19920;-83
2021/10/21 04:33:13;;;;;;;;;;;;;;;;;;5097126;28;19958;-80
2021/10/21 04:35:38;;;;;;;;;;;;;;;;;;5095935;28;19920;-80
2021/10/21 04:38:05;;;;;;;;;;;;;;;;;;5095689;28;19973;-80
2021/10/21 04:40:31;;;;;;;;;;;;;;;;;;5095706;28;19923;-80
2021/10/21 04:42:56;;;;;;;;;;;;;;;;;;5095636;28;19924;-80
2021/10/21 04:45:22;;;;;;;;;;;;;;;;;;5095453;28;20314;-80
2021/10/21 04:47:48;;;;;;;;;;;;;;;;;;5095510;28;19920;-80
2021/10/21 04:50:13;;;;;;;;;;;;;;;;;;5095413;28;19924;-80
2021/10/21 04:52:39;;;;;;;;;;;;;;;;;;5095359;28;19912;-78
2021/10/21 04:55:06;;;;;;;;;;;;;;;;;;5094343;28;19916;-78
2021/10/21 04:57:32;;;;;;;;;;;;;;;;;;5095273;28;19923;-78
2021/10/21 04:59:57;;;;;;;;;;;;;;;;;;5095097;28;19919;-78
2021/10/21 05:02:23;;;;;;;;;;;;;;;;;;5095144;28;19920;-77
2021/10/21 05:04:48;;;;;;;;;;;;;;;;;;5093984;28;19916;-78
2021/10/21 05:07:13;;;;;;;;;;;;;;;;;;5094767;28;19916;-79
2021/10/21 05:09:39;;;;;;;;;;;;;;;;;;5094903;28;19916;-78
2021/10/21 05:12:04;;;;;;;;;;;;;;;;;;5094924;28;19916;-78
2021/10/21 05:14:30;;;;;;;;;;;;;;;;;;5094902;28;19922;-78
2021/10/21 05:16:56;;;;;;;;;;;;;;;;;;5094888;28;19977;-78
2021/10/21 05:19:22;;;;;;;;;;;;;;;;;;5094744;28;19974;-78
2021/10/21 05:21:47;;;;;;;;;;;;;;;;;;5094601;28;19966;-78
2021/10/21 05:24:13;;;;;;;;;;;;;;;;;;5093427;28;19923;-81
2021/10/21 05:26:38;;;;;;;;;;;;;;;;;;5094893;28;19916;-77
2021/10/21 05:29:04;;;;;;;;;;;;;;;;;;5094502;28;20006;-78
2021/10/21 05:31:29;;;;;;;;;;;;;;;;;;5094474;28;20003;-77
2021/10/21 05:33:55;;;;;;;;;;;;;;;;;;5094419;28;20278;-78
2021/10/21 05:36:20;;;;;;;;;;;;;;;;;;5094339;28;20121;-76
2021/10/21 05:38:46;;;;;;;;;;;;;;;;;;5094346;28;19973;-77
2021/10/21 05:41:12;;;;;;;;;;;;;;;;;;5094541;28;20283;-78
2021/10/21 05:43:37;;;;;;;;;;;;;;;;;;5094562;28;20402;-76
2021/10/21 05:46:03;;;;;;;;;;;;;;;;;;5094280;28;19920;-75
2021/10/21 05:48:28;;;;;;;;;;;;;;;;;;5094295;28;20332;-76
2021/10/21 05:50:53;;;;;;;;;;;;;;;;;;5094131;28;19916;-78
2021/10/21 05:53:19;;;;;;;;;;;;;;;;;;5092945;28;20257;-78
2021/10/21 05:55:45;;;;;;;;;;;;;;;;;;5094158;28;19916;-78
2021/10/21 05:58:12;;;;;;;;;;;;;;;;;;5094026;28;20358;-77
2021/10/21 06:00:38;;;;;;;;;;;;;;;;;;5093856;28;19927;-75
2021/10/21 06:03:04;;;;;;;;;;;;;;;;;;5093963;28;19936;-77
2021/10/21 06:05:29;;;;;;;;;;;;;;;;;;5093679;28;19920;-77
2021/10/21 06:07:56;;;;;;;;;;;;;;;;;;5093640;28;20384;-77
2021/10/21 06:10:22;;;;;;;;;;;;;;;;;;5093858;28;19916;-78
2021/10/21 06:12:50;;;;;;;;;;;;;;;;;;5093796;28;20453;-79
2021/10/21 06:15:17;;;;;;;;;;;;;;;;;;5093738;28;19959;-78
2021/10/21 06:17:44;;;;;;;;;;;;;;;;;;5093698;28;20030;-78
2021/10/21 06:20:13;;;;;;;;;;;;;;;;;;5093569;28;19916;-78
2021/10/21 06:22:38;;;;;;;;;;;;;;;;;;5093582;28;20368;-79
2021/10/21 06:25:07;;;;;;;;;;;;;;;;;;5093546;28;19912;-78
2021/10/21 06:27:33;;;;;;;;;;;;;;;;;;5093603;28;20288;-79
2021/10/21 06:29:58;;;;;;;;;;;;;;;;;;5093660;28;19920;-79
2021/10/21 06:32:24;;;;;;;;;;;;;;;;;;5093414;28;19912;-80
2021/10/21 06:34:49;;;;;;;;;;;;;;;;;;5092118;28;19916;-79
2021/10/21 06:37:15;;;;;;;;;;;;;;;;;;5093361;28;19954;-78
2021/10/21 06:39:41;;;;;;;;;;;;;;;;;;5093442;28;20360;-79
2021/10/21 06:42:06;;;;;;;;;;;;;;;;;;5093324;28;20088;-79
2021/10/21 06:44:31;;;;;;;;;;;;;;;;;;5093292;28;19920;-79
2021/10/21 06:46:57;;;;;;;;;;;;;;;;;;5092174;28;19924;-79
2021/10/21 06:49:22;;;;;;;;;;;;;;;;;;5093328;28;19966;-79
2021/10/21 06:51:48;;;;;;;;;;;;;;;;;;5093420;28;19920;-79
2021/10/21 06:54:13;;;;;;;;;;;;;;;;;;5093352;28;19916;-79
2021/10/21 06:56:39;;;;;;;;;;;;;;;;;;5091930;28;19920;-79
2021/10/21 06:59:04;;;;;;;;;;;;;;;;;;5091988;28;20023;-80
2021/10/21 07:01:29;;;;;;;;;;;;;;;;;;5093086;28;19955;-76
2021/10/21 07:03:55;;;;;;;;;;;;;;;;;;5093041;28;19923;-77
2021/10/21 07:06:20;;;;;;;;;;;;;;;;;;5093210;28;19916;-76
2021/10/21 07:08:46;;;;;;;;;;;;;;;;;;5092936;28;20384;-76
2021/10/21 07:11:11;;;;;;;;;;;;;;;;;;5093157;28;19938;-76
2021/10/21 07:13:37;;;;;;;;;;;;;;;;;;5093037;28;20007;-76
2021/10/21 07:16:03;;;;;;;;;;;;;;;;;;5093089;28;19913;-74
2021/10/21 07:18:29;;;;;;;;;;;;;;;;;;5096423;28;20031;-76
2021/10/21 07:20:57;;;;;;;;;;;;;;;;;;5096937;28;20014;-76
2021/10/21 07:23:23;;;;;;;;;;;;;;;;;;5096967;28;20356;-78
2021/10/21 07:25:48;;;;;;;;;;;;;;;;;;5096915;28;19969;-77
2021/10/21 07:28:14;;;;;;;;;;;;;;;;;;5096881;28;20321;-76
2021/10/21 07:30:40;;;;;;;;;;;;;;;;;;5096767;28;20432;-76
2021/10/21 07:33:05;;;;;;;;;;;;;;;;;;5096814;28;19962;-76
2021/10/21 07:35:31;;;;;;;;;;;;;;;;;;5096698;28;20277;-77
2021/10/21 07:38:01;;;;;;;;;;;;;;;;;;5096782;28;19923;-77
2021/10/21 07:40:26;;;;;;;;;;;;;;;;;;5096925;28;19973;-77
2021/10/21 07:42:52;;;;;;;;;;;;;;;;;;5096585;28;20322;-78
2021/10/21 07:45:17;;;;;;;;;;;;;;;;;;5096467;28;19928;-78
2021/10/21 07:47:44;;;;;;;;;;;;;;;;;;5096503;28;19916;-78
2021/10/21 07:50:09;;;;;;;;;;;;;;;;;;5096505;28;19916;-77
2021/10/21 07:52:36;;;;;;;;;;;;;;;;;;5096638;28;20320;-78
2021/10/21 07:55:04;;;;;;;;;;;;;;;;;;5096949;28;19959;-78
2021/10/21 07:57:30;;;;;;;;;;;;;;;;;;5097122;28;19916;-79
2021/10/21 07:59:55;;;;;;;;;;;;;;;;;;5100459;28;19938;-79
2021/10/21 08:02:21;;;;;;;;;;;;;;;;;;5100195;28;19916;-79
2021/10/21 08:04:47;;;;;;;;;;;;;;;;;;5097141;28;19916;-78
2021/10/21 08:07:13;;;;;;;;;;;;;;;;;;5096062;28;20391;-77
2021/10/21 08:09:39;;;;;;;;;;;;;;;;;;5096230;28;19916;-79
2021/10/21 08:12:05;;;;;;;;;;;;;;;;;;5096252;28;20260;-79
2021/10/21 08:14:31;;;;;;;;;;;;;;;;;;5096127;28;19916;-78
2021/10/21 08:16:59;;;;;;;;;;;;;;;;;;5096023;28;20360;-78
2021/10/21 08:19:25;;;;;;;;;;;;;;;;;;5095987;28;20444;-79
2021/10/21 08:21:51;;;;;;;;;;;;;;;;;;5095906;28;19986;-78
2021/10/21 08:24:18;;;;;;;;;;;;;;;;;;5096187;28;20284;-78
2021/10/21 08:26:44;;;;;;;;;;;;;;;;;;5095935;28;19916;-79
2021/10/21 08:29:09;;;;;;;;;;;;;;;;;;5128642;27;19920;-79
2021/10/21 08:31:35;;;;;;;;;;;;;;;;;;5096026;28;19920;-79
2021/10/21 08:34:00;;;;;;;;;;;;;;;;;;5095550;28;20294;-78
2021/10/21 08:36:26;;;;;;;;;;;;;;;;;;5095747;28;19916;-78
2021/10/21 08:38:52;;;;;;;;;;;;;;;;;;5095642;28;19923;-79
2021/10/21 08:41:18;;;;;;;;;;;;;;;;;;5095572;28;19916;-80
2021/10/21 08:43:44;;;;;;;;;;;;;;;;;;5095618;28;19969;-78
2021/10/21 08:46:14;;;;;;;;;;;;;;;;;;5095554;28;19916;-79
2021/10/21 08:48:44;;;;;;;;;;;;;;;;;;5095260;28;19912;-81
2021/10/21 08:51:10;;;;;;;;;;;;;;;;;;5095425;28;19916;-78
2021/10/21 08:53:36;;;;;;;;;;;;;;;;;;5095392;28;19923;-78
2021/10/21 08:56:02;;;;;;;;;;;;;;;;;;5095125;28;19920;-79
2021/10/21 08:58:28;;;;;;;;;;;;;;;;;;5093963;28;20007;-78
2021/10/21 09:03:57;;;;;;;;;;;;;;;;;;5080870;28;20308;-77
2021/10/21 09:09:20;;;;;;;;;;;;;;;;;;5052324;28;20003;-77
2021/10/21 09:11:46;;;;;;;;;;;;;;;;;;5052543;28;20321;-78
2021/10/21 09:14:12;;;;;;;;;;;;;;;;;;5052522;28;20009;-78
2021/10/21 09:16:39;;;;;;;;;;;;;;;;;;5052511;28;20027;-78
2021/10/21 09:19:09;;;;;;;;;;;;;;;;;;5052383;28;19912;-77
2021/10/21 09:21:35;;;;;;;;;;;;;;;;;;5052445;28;19917;-79
2021/10/21 09:24:19;;;;;;;;;;;;;;;;;;5052322;28;20015;-78
2021/10/21 09:27:00;;;;;;;;;;;;;;;;;;5052243;28;20312;-78
2021/10/21 09:29:25;;;;;;;;;;;;;;;;;;5052161;28;19917;-77
2021/10/21 09:32:04;;;;;;;;;;;;;;;;;;5052147;28;19917;-77
2021/10/21 09:34:29;;;;;;;;;;;;;;;;;;5052171;28;20364;-80
2021/10/21 09:37:02;;;;;;;;;;;;;;;;;;5035538;28;19955;-79
2021/10/21 09:39:39;;;;;;;;;;;;;;;;;;5051513;28;19917;-79
2021/10/21 09:42:06;;;;;;;;;;;;;;;;;;5051928;28;19921;-79
2021/10/21 09:44:31;;;;;;;;;;;;;;;;;;5036121;28;19923;-79
2021/10/21 09:46:57;;;;;;;;;;;;;;;;;;5092931;28;19916;-78
2021/10/21 09:49:29;;;;;;;;;;;;;;;;;;5094134;28;20236;-79
2021/10/21 09:51:55;;;;;;;;;;;;;;;;;;5094198;28;20387;-78
2021/10/21 09:54:21;;;;;;;;;;;;;;;;;;5094148;28;19920;-79
2021/10/21 09:57:01;;;;;;;;;;;;;;;;;;5094278;28;19926;-78
2021/10/21 09:59:30;;;;;;;;;;;;;;;;;;5094377;28;19920;-79
2021/10/21 10:02:05;;;;;;;;;;;;;;;;;;5093931;28;19924;-77
2021/10/21 10:04:31;;;;;;;;;;;;;;;;;;5092783;28;20346;-79
2021/10/21 10:06:59;;;;;;;;;;;;;;;;;;5094108;28;19916;-81
2021/10/21 10:09:31;;;;;;;;;;;;;;;;;;5093712;28;19966;-81
2021/10/21 10:11:57;;;;;;;;;;;;;;;;;;5093796;28;20015;-80
2021/10/21 10:14:23;;;;;;;;;;;;;;;;;;5093748;28;19963;-78
2021/10/21 10:16:50;;;;;;;;;;;;;;;;;;5093941;28;20316;-79
2021/10/21 10:19:15;;;;;;;;;;;;;;;;;;5093641;28;19923;-84
2021/10/21 10:21:41;;;;;;;;;;;;;;;;;;5093753;28;20295;-85
2021/10/21 10:24:11;;;;;;;;;;;;;;;;;;5093692;28;19927;-84
2021/10/21 10:26:48;;;;;;;;;;;;;;;;;;5093592;28;19916;-84
2021/10/21 10:29:14;;;;;;;;;;;;;;;;;;5093484;28;19963;-84
2021/10/21 10:31:41;;;;;;;;;;;;;;;;;;5093587;28;20348;-84
2021/10/21 10:34:07;;;;;;;;;;;;;;;;;;5093560;28;19967;-84
2021/10/21 10:36:33;;;;;;;;;;;;;;;;;;5126324;27;19927;-84
2021/10/21 10:39:00;;;;;;;;;;;;;;;;;;5093441;28;19920;-85
2021/10/21 10:41:41;;;;;;;;;;;;;;;;;;5092043;28;19920;-84
2021/10/21 10:44:06;;;;;;;;;;;;;;;;;;5093408;28;19922;-85
2021/10/21 10:46:53;;;;;;;;;;;;;;;;;;5093324;28;20007;-84
2021/10/21 10:49:37;;;;;;;;;;;;;;;;;;5093339;28;19973;-84
2021/10/21 10:52:03;;;;;;;;;;;;;;;;;;5093034;28;20356;-84
2021/10/21 10:54:45;;;;;;;;;;;;;;;;;;5097551;28;19919;-85
2021/10/21 10:57:12;;;;;;;;;;;;;;;;;;5097519;28;19924;-85
2021/10/21 10:59:37;;;;;;;;;;;;;;;;;;5097422;28;19919;-85
2021/10/21 11:02:21;;;;;;;;;;;;;;;;;;5097328;28;19916;-85
2021/10/21 11:04:53;;;;;;;;;;;;;;;;;;5097264;28;20349;-85
2021/10/21 11:07:47;;;;;;;;;;;;;;;;;;5097130;28;19946;-85
2021/10/21 11:10:17;;;;;;;;;;;;;;;;;;5097355;28;20006;-84
2021/10/21 11:12:43;;;;;;;;;;;;;;;;;;5097254;28;20380;-84
2021/10/21 11:15:27;;;;;;;;;;;;;;;;;;5097152;28;19965;-85
2021/10/21 11:17:53;;;;;;;;;;;;;;;;;;5097124;28;19916;-85
2021/10/21 11:20:30;;;;;;;;;;;;;;;;;;5096984;28;19926;-85
2021/10/21 11:23:18;;;;;;;;;;;;;;;;;;5097689;28;19969;-84
2021/10/21 11:25:44;;;;;;;;;;;;;;;;;;5095488;28;19924;-85
2021/10/21 11:28:10;;;;;;;;;;;;;;;;;;5096265;28;19916;-84
2021/10/21 11:30:39;;;;;;;;;;;;;;;;;;5104106;28;19939;-83
2021/10/21 11:33:07;;;;;;;;;;;;;;;;;;5122871;28;19983;-83
2021/10/21 11:35:34;;;;;;;;;;;;;;;;;;5093538;28;19928;-84
2021/10/21 11:38:00;;;;;;;;;;;;;;;;;;5076721;28;19917;-83
2021/10/21 11:40:26;;;;;;;;;;;;;;;;;;5076371;28;19917;-84
2021/10/21 11:42:52;;;;;;;;;;;;;;;;;;5076506;28;19917;-84
2021/10/21 11:45:18;;;;;;;;;;;;;;;;;;5076427;28;19919;-84
2021/10/21 11:47:44;;;;;;;;;;;;;;;;;;5076362;28;19924;-85
2021/10/21 11:50:10;;;;;;;;;;;;;;;;;;5076331;28;19986;-84
2021/10/21 11:52:42;;;;;;;;;;;;;;;;;;5076339;28;20371;-85
2021/10/21 11:55:18;;;;;;;;;;;;;;;;;;5076359;28;20408;-85
2021/10/21 11:57:44;;;;;;;;;;;;;;;;;;5076113;28;19913;-84
2021/10/21 12:00:17;;;;;;;;;;;;;;;;;;5075956;28;19924;-85
2021/10/21 12:02:43;;;;;;;;;;;;;;;;;;5075597;28;19924;-78
2021/10/21 12:05:09;;;;;;;;;;;;;;;;;;5075921;28;19917;-82
2021/10/21 12:07:34;;;;;;;;;;;;;;;;;;5075739;28;19931;-81
2021/10/21 12:10:00;;;;;;;;;;;;;;;;;;5075943;28;19927;-80
2021/10/21 12:12:35;;;;;;;;;;;;;;;;;;5076025;28;19921;-79
2021/10/21 12:15:01;;;;;;;;;;;;;;;;;;5075568;28;19939;-80
2021/10/21 12:17:26;;;;;;;;;;;;;;;;;;5075768;28;20265;-80
2021/10/21 12:19:52;;;;;;;;;;;;;;;;;;5075642;28;19912;-81
2021/10/21 12:22:20;;;;;;;;;;;;;;;;;;5075593;28;19917;-79
2021/10/21 12:24:46;;;;;;;;;;;;;;;;;;5075612;28;20573;-80
2021/10/21 12:27:26;;;;;;;;;;;;;;;;;;5075573;28;19962;-78
2021/10/21 12:30:00;;;;;;;;;;;;;;;;;;5075540;28;19920;-78
2021/10/21 12:32:26;;;;;;;;;;;;;;;;;;5075521;28;19951;-78
2021/10/21 12:35:02;;;;;;;;;;;;;;;;;;5075381;28;19963;-77
2021/10/21 12:37:28;;;;;;;;;;;;;;;;;;5075423;28;19927;-78
2021/10/21 12:40:09;;;;;;;;;;;;;;;;;;5075234;28;20007;-78
2021/10/21 12:42:34;;;;;;;;;;;;;;;;;;5075339;28;20372;-79
2021/10/21 12:45:00;;;;;;;;;;;;;;;;;;5085729;28;19917;-78
2021/10/21 12:47:31;;;;;;;;;;;;;;;;;;5084784;28;20439;-81
2021/10/21 12:50:15;;;;;;;;;;;;;;;;;;5074825;28;20325;-79
2021/10/21 12:52:48;;;;;;;;;;;;;;;;;;5076411;28;20017;-80
2021/10/21 12:55:21;;;;;;;;;;;;;;;;;;5075756;28;19921;-79
2021/10/21 12:57:52;;;;;;;;;;;;;;;;;;5076351;28;19928;-80
2021/10/21 13:00:46;;;;;;;;;;;;;;;;;;5073637;28;19917;-78
2021/10/21 13:03:18;;;;;;;;;;;;;;;;;;5074108;28;19952;-79
2021/10/21 13:05:57;;;;;;;;;;;;;;;;;;5074832;28;19959;-79
2021/10/21 13:08:22;;;;;;;;;;;;;;;;;;5074557;28;19920;-78
2021/10/21 13:10:55;;;;;;;;;;;;;;;;;;5076564;28;19927;-80
2021/10/21 13:13:31;;;;;;;;;;;;;;;;;;5075122;28;19947;-82
2021/10/21 13:15:57;;;;;;;;;;;;;;;;;;5076222;28;19917;-78
2021/10/21 13:18:23;;;;;;;;;;;;;;;;;;5074957;28;20014;-78
2021/10/21 13:20:49;;;;;;;;;;;;;;;;;;5075390;28;20034;-79
2021/10/21 13:23:15;;;;;;;;;;;;;;;;;;5074777;28;20380;-78
2021/10/21 13:25:40;;;;;;;;;;;;;;;;;;5073914;28;19973;-78
2021/10/21 13:28:06;;;;;;;;;;;;;;;;;;5074933;28;19957;-79
2021/10/21 13:30:32;;;;;;;;;;;;;;;;;;5074809;28;20408;-79
2021/10/21 13:32:57;;;;;;;;;;;;;;;;;;5074511;28;19916;-78
2021/10/21 13:35:23;;;;;;;;;;;;;;;;;;5074953;28;19913;-78
2021/10/21 13:37:49;;;;;;;;;;;;;;;;;;5074601;28;19927;-79
2021/10/21 13:40:14;;;;;;;;;;;;;;;;;;5074951;28;20296;-79
2021/10/21 13:42:42;;;;;;;;;;;;;;;;;;5074765;28;19917;-79
2021/10/21 13:45:07;;;;;;;;;;;;;;;;;;5074768;28;19923;-78
2021/10/21 13:47:33;;;;;;;;;;;;;;;;;;5074311;28;19916;-79
2021/10/21 13:49:58;;;;;;;;;;;;;;;;;;5074743;28;19967;-80
2021/10/21 13:52:24;;;;;;;;;;;;;;;;;;5074793;28;20281;-80
2021/10/21 13:54:49;;;;;;;;;;;;;;;;;;5072974;28;19916;-80
2021/10/21 13:57:15;;;;;;;;;;;;;;;;;;5074325;28;19916;-79
2021/10/21 13:59:42;;;;;;;;;;;;;;;;;;5074343;28;20309;-79
2021/10/21 14:02:29;;;;;;;;;;;;;;;;;;5082214;28;19916;-80
2021/10/21 14:04:53;;;;;;;;;;;;;;;;;;5078371;28;20010;-81
2021/10/21 14:07:20;;;;;;;;;;;;;;;;;;5074291;28;20008;-78
2021/10/21 14:09:46;;;;;;;;;;;;;;;;;;5074430;28;19930;-79
2021/10/21 14:12:12;;;;;;;;;;;;;;;;;;5079243;28;19984;-81
2021/10/21 14:14:41;;;;;;;;;;;;;;;;;;5078573;28;20112;-81
2021/10/21 14:17:07;;;;;;;;;;;;;;;;;;5074210;28;19916;-90
2021/10/21 14:19:33;;;;;;;;;;;;;;;;;;5075729;28;19921;-79
2021/10/21 14:21:58;;;;;;;;;;;;;;;;;;5073265;28;20391;-80
2021/10/21 14:24:24;;;;;;;;;;;;;;;;;;5073861;28;19969;-81
2021/10/21 14:26:53;;;;;;;;;;;;;;;;;;5074052;28;19923;-80
2021/10/21 14:29:19;;;;;;;;;;;;;;;;;;5074889;28;19938;-82
2021/10/21 14:31:45;;;;;;;;;;;;;;;;;;5073963;28;19916;-81
2021/10/21 14:34:11;;;;;;;;;;;;;;;;;;5073659;28;19912;-83
2021/10/21 14:36:37;;;;;;;;;;;;;;;;;;5075659;28;20088;-82
2021/10/21 14:39:04;;;;;;;;;;;;;;;;;;5077019;28;19917;-82
2021/10/21 14:41:30;;;;;;;;;;;;;;;;;;5078598;28;19916;-81
2021/10/21 14:43:57;;;;;;;;;;;;;;;;;;5078073;28;19956;-82
2021/10/21 14:46:22;;;;;;;;;;;;;;;;;;5079087;28;19923;-80
2021/10/21 14:48:48;;;;;;;;;;;;;;;;;;5078239;28;19920;-82
2021/10/21 14:51:14;;;;;;;;;;;;;;;;;;5079095;28;19942;-82
2021/10/21 14:53:40;;;;;;;;;;;;;;;;;;5080080;28;19917;-83
2021/10/21 14:56:06;;;;;;;;;;;;;;;;;;5078124;28;19917;-84
2021/10/21 14:58:36;;;;;;;;;;;;;;;;;;5084481;28;20009;-83
2021/10/21 15:01:11;;;;;;;;;;;;;;;;;;5089434;28;19917;-82
2021/10/21 15:03:39;;;;;;;;;;;;;;;;;;5086932;28;19916;-81
2021/10/21 15:06:44;;;;;;;;;;;;;;;;;;5084280;28;19920;-81
2021/10/21 15:23:10;;;;;;;;;;;;;;;;;;5067440;28;19971;-81
2021/10/21 15:25:36;;;;;;;;;;;;;;;;;;5051067;28;19921;-85
2021/10/21 15:28:02;;;;;;;;;;;;;;;;;;5061710;28;19924;-81
2021/10/21 15:30:28;;;;;;;;;;;;;;;;;;5056710;28;19924;-82
2021/10/21 15:32:53;;;;;;;;;;;;;;;;;;5055911;28;19917;-82
2021/10/21 15:35:19;;;;;;;;;;;;;;;;;;5058730;28;19916;-82
2021/10/21 15:37:45;;;;;;;;;;;;;;;;;;5060683;28;19916;-83
2021/10/21 15:40:11;;;;;;;;;;;;;;;;;;5067139;28;19924;-81
2021/10/21 15:42:39;;;;;;;;;;;;;;;;;;5067762;28;19921;-83
2021/10/21 15:48:10;;;;;;;;;;;;;;;;;;5066206;28;19923;-80
2021/10/21 16:10:32;;;;;;;;;;;;;;;;;;5112282;28;19931;-81
2021/10/21 16:13:19;;;;;;;;;;;;;;;;;;5109813;28;19927;-82
2021/10/21 16:15:43;;;;;;;;;;;;;;;;;;5112627;28;19916;-80
2021/10/21 16:18:12;;;;;;;;;;;;;;;;;;5111540;28;20049;-80
2021/10/21 16:20:43;;;;;;;;;;;;;;;;;;5144825;27;19923;-79
2021/10/21 16:23:11;;;;;;;;;;;;;;;;;;5106431;28;19920;-80
2021/10/21 16:28:33;;;;;;;;;;;;;;;;;;5071996;28;19916;-82
2021/10/21 16:30:58;;;;;;;;;;;;;;;;;;5095787;28;19916;-80
2021/10/21 16:33:24;;;;;;;;;;;;;;;;;;5094481;28;19938;-85
2021/10/21 16:35:49;;;;;;;;;;;;;;;;;;5096949;28;19964;-77
2021/10/21 16:38:15;;;;;;;;;;;;;;;;;;5096084;28;19916;-87
2021/10/21 16:40:41;;;;;;;;;;;;;;;;;;5095595;28;19972;-78
2021/10/21 16:43:06;;;;;;;;;;;;;;;;;;5095981;28;20295;-78
2021/10/21 16:45:31;;;;;;;;;;;;;;;;;;5096032;28;19913;-77
2021/10/21 16:47:57;;;;;;;;;;;;;;;;;;5095499;28;19945;-78
2021/10/21 16:50:22;;;;;;;;;;;;;;;;;;5128334;27;19912;-78
2021/10/21 16:52:49;;;;;;;;;;;;;;;;;;5095462;28;20398;-77
2021/10/21 16:55:15;;;;;;;;;;;;;;;;;;5096602;28;19916;-77
2021/10/21 16:57:41;;;;;;;;;;;;;;;;;;5095742;28;19912;-78
2021/10/21 17:00:13;;;;;;;;;;;;;;;;;;5099278;28;19916;-79
2021/10/21 17:02:38;;;;;;;;;;;;;;;;;;5096636;28;19920;-78
2021/10/21 17:05:06;;;;;;;;;;;;;;;;;;5096506;28;20260;-78
2021/10/21 17:07:32;;;;;;;;;;;;;;;;;;5129610;27;20286;-80
2021/10/21 17:10:02;;;;;;;;;;;;;;;;;;5097526;28;19942;-80
2021/10/21 17:12:28;;;;;;;;;;;;;;;;;;5096592;28;20380;-79
2021/10/21 17:14:53;;;;;;;;;;;;;;;;;;5097114;28;19927;-79
2021/10/21 17:17:19;;;;;;;;;;;;;;;;;;5097057;28;19961;-78
2021/10/21 17:19:45;;;;;;;;;;;;;;;;;;5096381;28;19938;-78
2021/10/21 17:22:11;;;;;;;;;;;;;;;;;;5096312;28;20290;-78
2021/10/21 17:24:40;;;;;;;;;;;;;;;;;;5098114;28;19916;-78
2021/10/21 17:27:06;;;;;;;;;;;;;;;;;;5099186;28;20375;-79
2021/10/21 17:29:31;;;;;;;;;;;;;;;;;;5097993;28;19917;-78
2021/10/21 17:31:57;;;;;;;;;;;;;;;;;;5095810;28;19916;-78